sensor_id;sensor_type;location;lat;lon;timestamp;pressure;altitude;pressure_sealevel;temperature
68342;BMP280;55668;52.310;21.066;2023-09-19T00:14:56;100110.0;;;18.4
68342;BMP280;55668;52.310;21.066;2023-09-19T00:26:31;100110.0;;;18.3
68342;BMP280;55668;52.310;21.066;2023-09-19T01:12:08;100080.0;;;18.2
68342;BMP280;55668;52.310;21.066;2023-09-19T01:29:13;100070.0;;;18.0
68342;BMP280;55668;52.310;21.066;2023-09-19T02:14:05;100040.0;;;17.8
68342;BMP280;55668;52.310;21.066;2023-09-19T02:45:33;100000.0;;;17.6
68342;BMP280;55668;52.310;21.066;2023-09-19T03:00:08;99990.0;;;17.4
68342;BMP280;55668;52.310;21.066;2023-09-19T03:31:38;99980.0;;;17.2
68342;BMP280;55668;52.310;21.066;2023-09-19T03:49:49;99970.0;;;17.3
68342;BMP280;55668;52.310;21.066;2023-09-19T04:03:16;99960.0;;;17.5
68342;BMP280;55668;52.310;21.066;2023-09-19T04:46:45;99930.0;;;17.3
68342;BMP280;55668;52.310;21.066;2023-09-19T05:05:50;99910.0;;;17.4
68342;BMP280;55668;52.310;21.066;2023-09-19T05:18:12;99900.0;;;17.7
68342;BMP280;55668;52.310;21.066;2023-09-19T05:34:52;99900.0;;;18.2
68342;BMP280;55668;52.310;21.066;2023-09-19T06:20:25;99920.0;;;18.8
68342;BMP280;55668;52.310;21.066;2023-09-19T06:38:14;99940.0;;;19.4
68342;BMP280;55668;52.310;21.066;2023-09-19T06:50:39;99940.0;;;20.0
68342;BMP280;55668;52.310;21.066;2023-09-19T07:06:08;99950.0;;;22.8
68342;BMP280;55668;52.310;21.066;2023-09-19T07:22:04;99960.0;;;23.5
68342;BMP280;55668;52.310;21.066;2023-09-19T07:42:16;99970.0;;;22.8
68342;BMP280;55668;52.310;21.066;2023-09-19T07:54:17;99990.0;;;22.4
68342;BMP280;55668;52.310;21.066;2023-09-19T08:10:14;100000.0;;;22.3
68342;BMP280;55668;52.310;21.066;2023-09-19T08:37:53;100020.0;;;22.6
68342;BMP280;55668;52.310;21.066;2023-09-19T08:54:12;100020.0;;;22.3
68342;BMP280;55668;52.310;21.066;2023-09-19T09:07:31;100020.0;;;22.0
68342;BMP280;55668;52.310;21.066;2023-09-19T09:23:15;100040.0;;;21.7
68342;BMP280;55668;52.310;21.066;2023-09-19T09:38:13;100070.0;;;21.0
68342;BMP280;55668;52.310;21.066;2023-09-19T09:53:20;100080.0;;;20.3
68342;BMP280;55668;52.310;21.066;2023-09-19T10:09:06;100090.0;;;19.7
68342;BMP280;55668;52.310;21.066;2023-09-19T10:24:57;100080.0;;;19.3
68342;BMP280;55668;52.310;21.066;2023-09-19T10:39:14;100110.0;;;19.2
68342;BMP280;55668;52.310;21.066;2023-09-19T10:54:37;100100.0;;;19.6
68342;BMP280;55668;52.310;21.066;2023-09-19T11:56:33;100120.0;;;20.0
68342;BMP280;55668;52.310;21.066;2023-09-19T12:11:14;100130.0;;;19.8
68342;BMP280;55668;52.310;21.066;2023-09-19T12:26:40;100150.0;;;20.0
68342;BMP280;55668;52.310;21.066;2023-09-19T12:57:23;100170.0;;;19.8
68342;BMP280;55668;52.310;21.066;2023-09-19T13:14:30;100160.0;;;19.7
68342;BMP280;55668;52.310;21.066;2023-09-19T13:48:45;100170.0;;;20.1
68342;BMP280;55668;52.310;21.066;2023-09-19T14:14:03;100170.0;;;20.2
68342;BMP280;55668;52.310;21.066;2023-09-19T14:46:27;100180.0;;;20.1
68342;BMP280;55668;52.310;21.066;2023-09-19T15:02:12;100190.0;;;20.0
68342;BMP280;55668;52.310;21.066;2023-09-19T15:46:28;100210.0;;;19.9
68342;BMP280;55668;52.310;21.066;2023-09-19T16:18:16;100250.0;;;19.6
68342;BMP280;55668;52.310;21.066;2023-09-19T16:31:54;100260.0;;;19.3
68342;BMP280;55668;52.310;21.066;2023-09-19T17:19:45;100290.0;;;18.9
68342;BMP280;55668;52.310;21.066;2023-09-19T17:36:34;100310.0;;;18.8
68342;BMP280;55668;52.310;21.066;2023-09-19T17:55:15;100340.0;;;18.4
68342;BMP280;55668;52.310;21.066;2023-09-19T18:05:15;100350.0;;;18.0
68342;BMP280;55668;52.310;21.066;2023-09-19T18:40:28;100380.0;;;17.4
68342;BMP280;55668;52.310;21.066;2023-09-19T18:55:31;100400.0;;;17.1
68342;BMP280;55668;52.310;21.066;2023-09-19T19:06:29;100410.0;;;16.8
68342;BMP280;55668;52.310;21.066;2023-09-19T19:24:35;100410.0;;;16.5
68342;BMP280;55668;52.310;21.066;2023-09-19T19:37:44;100430.0;;;16.1
68342;BMP280;55668;52.310;21.066;2023-09-19T19:51:42;100420.0;;;15.6
68342;BMP280;55668;52.310;21.066;2023-09-19T20:07:41;100430.0;;;15.1
68342;BMP280;55668;52.310;21.066;2023-09-19T20:29:13;100440.0;;;14.8
68342;BMP280;55668;52.310;21.066;2023-09-19T20:54:28;100440.0;;;14.2
68342;BMP280;55668;52.310;21.066;2023-09-19T21:13:02;100450.0;;;14.0
68342;BMP280;55668;52.310;21.066;2023-09-19T21:23:32;100470.0;;;13.7
68342;BMP280;55668;52.310;21.066;2023-09-19T21:44:01;100470.0;;;13.4
68342;BMP280;55668;52.310;21.066;2023-09-19T22:26:38;100470.0;;;13.3
68342;BMP280;55668;52.310;21.066;2023-09-19T22:46:52;100470.0;;;13.2
68342;BMP280;55668;52.310;21.066;2023-09-19T23:10:39;100490.0;;;13.4
68342;BMP280;55668;52.310;21.066;2023-09-19T23:25:49;100500.0;;;13.7
68342;BMP280;55668;52.310;21.066;2023-09-19T23:42:17;100510.0;;;13.8
